Time;durP1;ratioP1;P1;durP2;ratioP2;P2;SDS_P1;SDS_P2;PMS_P1;PMS_P2;Temp;Humidity;BMP_temperature;BMP_pressure;BME280_temperature;BME280_humidity;BME280_pressure;Samples;Min_cycle;Max_cycle;Signal;HPM_P1;HPM_P2
2023/03/24 00:02:19;;;;;;;0.52;0.52;;;17.00;75.10;;;;;;5010140;28;20474;-81
2023/03/24 00:04:48;;;;;;;0.60;0.50;;;17.00;75.10;;;;;;5004314;28;20391;-81
2023/03/24 00:07:14;;;;;;;0.50;0.50;;;17.00;75.10;;;;;;5002692;28;20117;-81
2023/03/24 00:09:41;;;;;;;0.50;0.50;;;17.00;75.20;;;;;;5005546;28;20068;-81
2023/03/24 00:12:08;;;;;;;0.40;0.40;;;17.00;74.90;;;;;;5007740;28;20038;-81
2023/03/24 00:14:37;;;;;;;1.08;0.47;;;17.00;74.80;;;;;;5008529;28;20567;-81
2023/03/24 00:17:04;;;;;;;0.60;0.40;;;17.00;74.90;;;;;;5006365;28;20120;-81
2023/03/24 00:19:29;;;;;;;0.50;0.40;;;17.00;74.90;;;;;;5008400;28;20133;-81
2023/03/24 00:21:55;;;;;;;2.78;0.50;;;17.00;74.80;;;;;;5008761;28;20132;-81
2023/03/24 00:24:20;;;;;;;0.40;0.30;;;17.00;74.80;;;;;;5007928;28;20129;-81
2023/03/24 00:26:47;;;;;;;0.30;0.30;;;17.00;74.80;;;;;;5009138;28;20132;-82
2023/03/24 00:29:13;;;;;;;0.57;0.30;;;17.00;74.80;;;;;;5007278;28;20500;-81
2023/03/24 00:31:39;;;;;;;0.50;0.47;;;17.00;74.80;;;;;;5008459;28;20052;-81
2023/03/24 00:34:07;;;;;;;1.33;0.50;;;17.00;74.80;;;;;;5006955;28;20056;-81
2023/03/24 00:36:33;;;;;;;0.40;0.40;;;17.00;74.70;;;;;;5007485;28;20041;-81
2023/03/24 00:38:59;;;;;;;0.40;0.30;;;17.00;74.70;;;;;;5007266;28;20038;-80
2023/03/24 00:41:26;;;;;;;0.60;0.40;;;17.00;74.70;;;;;;5007784;28;20757;-81
2023/03/24 00:43:54;;;;;;;0.30;0.30;;;17.00;74.60;;;;;;5008327;28;20447;-80
2023/03/24 00:46:26;;;;;;;1.38;0.60;;;16.90;74.50;;;;;;5003964;28;20038;-81
2023/03/24 00:49:14;;;;;;;0.40;0.40;;;16.90;74.50;;;;;;5005874;28;25829;-81
2023/03/24 00:51:40;;;;;;;0.32;0.30;;;16.90;74.60;;;;;;5005159;28;20269;-81
2023/03/24 00:54:08;;;;;;;0.50;0.50;;;16.90;74.60;;;;;;4992192;28;20519;-81
2023/03/24 00:56:34;;;;;;;0.63;0.63;;;16.90;74.50;;;;;;5008786;28;20036;-82
2023/03/24 00:59:01;;;;;;;0.35;0.35;;;16.90;74.50;;;;;;5019163;28;20111;-81
2023/03/24 01:01:28;;;;;;;0.77;0.40;;;17.00;74.50;;;;;;4992643;28;20037;-81
2023/03/24 01:03:55;;;;;;;0.40;0.40;;;16.90;74.50;;;;;;5024843;28;20129;-82
2023/03/24 01:06:22;;;;;;;1.35;0.50;;;16.90;74.50;;;;;;4990455;28;20136;-81
2023/03/24 01:08:48;;;;;;;0.70;0.57;;;16.90;74.40;;;;;;5008921;28;20038;-81
2023/03/24 01:11:15;;;;;;;0.55;0.47;;;16.90;74.50;;;;;;5007833;28;20095;-82
2023/03/24 01:13:41;;;;;;;1.27;0.75;;;16.90;75.20;;;;;;5007596;28;20072;-81
2023/03/24 01:16:07;;;;;;;0.45;0.43;;;16.90;74.50;;;;;;5006726;28;20071;-82
2023/03/24 01:18:33;;;;;;;0.65;0.50;;;16.90;74.50;;;;;;4987838;28;20418;-81
2023/03/24 01:21:00;;;;;;;0.55;0.30;;;16.90;74.40;;;;;;5006663;28;20112;-80
2023/03/24 01:23:25;;;;;;;1.02;0.60;;;16.90;74.40;;;;;;4991079;28;20459;-81
2023/03/24 01:25:51;;;;;;;0.82;0.50;;;17.00;75.20;;;;;;5006554;28;20034;-81
2023/03/24 01:28:23;;;;;;;0.98;0.60;;;16.90;74.40;;;;;;5007280;28;20065;-82
2023/03/24 01:30:49;;;;;;;1.75;0.80;;;16.90;74.40;;;;;;5006336;28;20045;-81
2023/03/24 01:33:15;;;;;;;0.70;0.60;;;16.90;74.40;;;;;;5006813;28;20108;-81
2023/03/24 01:35:41;;;;;;;1.00;0.75;;;16.90;74.40;;;;;;5007204;28;20133;-81
2023/03/24 01:38:07;;;;;;;1.52;0.80;;;16.90;74.40;;;;;;4989298;28;20419;-81
2023/03/24 01:40:34;;;;;;;0.98;0.70;;;16.90;74.40;;;;;;4987267;28;20042;-81
2023/03/24 01:43:00;;;;;;;1.52;0.90;;;16.90;74.30;;;;;;5003243;28;20052;-81
2023/03/24 01:45:40;;;;;;;0.73;0.65;;;16.90;74.30;;;;;;5004520;28;20049;-82
2023/03/24 01:48:15;;;;;;;0.95;0.80;;;16.90;74.20;;;;;;5004059;28;20105;-82
2023/03/24 01:50:48;;;;;;;1.02;0.60;;;16.90;74.30;;;;;;5003232;28;20038;-81
2023/03/24 01:53:14;;;;;;;1.15;0.68;;;17.00;74.20;;;;;;5005552;28;20068;-81
2023/03/24 01:55:40;;;;;;;0.90;0.77;;;16.90;74.20;;;;;;5003960;28;20046;-81
2023/03/24 01:58:06;;;;;;;0.60;0.50;;;16.90;74.20;;;;;;5003835;28;20049;-80
2023/03/24 02:00:31;;;;;;;0.80;0.50;;;17.00;74.10;;;;;;5003911;28;20550;-81
2023/03/24 02:03:00;;;;;;;0.40;0.40;;;16.90;74.10;;;;;;4987985;28;20165;-78
2023/03/24 02:05:28;;;;;;;0.50;0.50;;;16.90;74.20;;;;;;5002844;28;20136;-81
2023/03/24 02:08:16;;;;;;;1.35;0.60;;;16.90;74.10;;;;;;5003186;28;20050;-81
2023/03/24 02:10:41;;;;;;;0.80;0.60;;;16.90;74.20;;;;;;5006546;28;20442;-81
2023/03/24 02:13:09;;;;;;;0.63;0.63;;;16.90;74.10;;;;;;5003666;28;20049;-82
2023/03/24 02:15:56;;;;;;;0.77;0.50;;;17.00;74.20;;;;;;4985759;28;20058;-81
2023/03/24 02:18:26;;;;;;;0.50;0.50;;;16.90;74.20;;;;;;5000663;28;20084;-81
2023/03/24 02:21:13;;;;;;;0.77;0.50;;;16.90;74.00;;;;;;5004163;28;20498;-82
2023/03/24 02:24:06;;;;;;;0.70;0.70;;;16.90;74.00;;;;;;5003028;28;20037;-82
2023/03/24 02:26:38;;;;;;;1.25;0.70;;;16.90;74.00;;;;;;5018192;28;20038;-81
2023/03/24 02:29:41;;;;;;;0.93;0.57;;;17.00;74.00;;;;;;5005529;28;20487;-81
2023/03/24 02:32:31;;;;;;;0.98;0.70;;;17.00;74.10;;;;;;5004761;28;20064;-80
2023/03/24 02:35:15;;;;;;;0.55;0.52;;;16.90;74.00;;;;;;5006201;28;20129;-81
2023/03/24 02:38:19;;;;;;;0.60;0.60;;;16.90;74.00;;;;;;5005695;28;20050;-80
2023/03/24 02:41:18;;;;;;;1.27;0.55;;;16.90;73.90;;;;;;5005206;28;20065;-80
2023/03/24 02:44:03;;;;;;;1.08;0.63;;;16.90;74.00;;;;;;5003239;28;20132;-80
2023/03/24 02:46:46;;;;;;;1.23;0.50;;;17.00;74.00;;;;;;5002738;28;20052;-81
2023/03/24 02:49:26;;;;;;;0.82;0.60;;;17.00;74.00;;;;;;5005812;28;20041;-81
2023/03/24 02:52:18;;;;;;;0.85;0.40;;;16.90;73.90;;;;;;5006823;28;20053;-81
2023/03/24 02:55:24;;;;;;;0.47;0.40;;;17.00;74.00;;;;;;5004679;28;20046;-80
2023/03/24 02:57:59;;;;;;;2.03;0.90;;;16.90;73.90;;;;;;5004316;28;21059;-81
2023/03/24 03:00:31;;;;;;;0.88;0.70;;;17.00;73.90;;;;;;5010200;28;20165;-81
2023/03/24 03:03:01;;;;;;;0.75;0.52;;;17.00;74.00;;;;;;5008740;28;20057;-82
2023/03/24 03:05:32;;;;;;;0.40;0.40;;;16.90;73.90;;;;;;5006262;28;20523;-82
2023/03/24 03:07:58;;;;;;;1.00;0.60;;;16.90;73.90;;;;;;5003423;28;20042;-81
2023/03/24 03:10:36;;;;;;;0.40;0.40;;;17.00;74.00;;;;;;5006607;28;20077;-81
2023/03/24 03:13:04;;;;;;;0.68;0.68;;;16.90;73.90;;;;;;4987680;28;20045;-81
2023/03/24 03:15:33;;;;;;;0.70;0.50;;;17.00;74.00;;;;;;4985983;28;20085;-81
2023/03/24 03:18:21;;;;;;;0.60;0.45;;;17.00;73.90;;;;;;5006779;28;20046;-80
2023/03/24 03:20:52;;;;;;;0.40;0.40;;;17.00;73.80;;;;;;5015817;28;20064;-81
2023/03/24 03:23:24;;;;;;;0.57;0.57;;;17.00;74.00;;;;;;4988140;28;20088;-81
2023/03/24 03:25:52;;;;;;;0.75;0.47;;;17.00;73.90;;;;;;5005410;28;20056;-81
2023/03/24 03:28:20;;;;;;;0.47;0.47;;;17.00;74.00;;;;;;5015305;28;20526;-81
2023/03/24 03:30:51;;;;;;;0.63;0.55;;;17.00;74.00;;;;;;5002574;28;20506;-82
2023/03/24 03:33:25;;;;;;;0.80;0.60;;;17.00;74.30;;;;;;5014042;28;20535;-81
2023/03/24 03:36:02;;;;;;;0.80;0.70;;;16.90;74.30;;;;;;5001459;28;20049;-82
2023/03/24 03:38:37;;;;;;;0.73;0.70;;;17.00;74.40;;;;;;5007499;28;20052;-81
2023/03/24 03:41:03;;;;;;;1.05;0.60;;;16.90;74.50;;;;;;5003301;28;20101;-81
2023/03/24 03:43:29;;;;;;;0.98;0.60;;;17.00;74.70;;;;;;5006572;28;20050;-81
2023/03/24 03:45:55;;;;;;;0.80;0.60;;;17.00;74.70;;;;;;5003980;28;20050;-81
2023/03/24 03:48:20;;;;;;;0.77;0.60;;;17.00;74.80;;;;;;5004390;28;20146;-81
2023/03/24 03:50:46;;;;;;;0.50;0.40;;;17.00;74.90;;;;;;5020884;28;20400;-80
2023/03/24 03:53:15;;;;;;;0.95;0.73;;;17.00;74.90;;;;;;5006754;28;20483;-80
2023/03/24 03:55:40;;;;;;;0.50;0.43;;;17.00;74.90;;;;;;5006770;28;20042;-80
2023/03/24 03:58:06;;;;;;;0.70;0.50;;;17.00;74.80;;;;;;4985295;28;20097;-79
2023/03/24 04:00:32;;;;;;;1.00;0.60;;;17.00;74.90;;;;;;5003283;28;20058;-79
2023/03/24 04:03:25;;;;;;;0.47;0.30;;;17.00;74.90;;;;;;4990019;28;20049;-80
2023/03/24 04:06:45;;;;;;;0.68;0.60;;;17.00;74.80;;;;;;5004557;28;20065;-80
2023/03/24 04:09:34;;;;;;;0.52;0.50;;;17.00;74.60;;;;;;5002970;28;20071;-80
2023/03/24 04:12:17;;;;;;;0.90;0.73;;;17.00;74.80;;;;;;4988825;28;20060;-82
2023/03/24 04:14:49;;;;;;;0.82;0.65;;;16.90;74.80;;;;;;5000867;28;20054;-81
2023/03/24 04:17:41;;;;;;;0.55;0.43;;;17.00;74.80;;;;;;5006973;28;20065;-80
2023/03/24 04:20:25;;;;;;;1.02;0.68;;;17.00;75.00;;;;;;4992890;28;20050;-81
2023/03/24 04:23:08;;;;;;;1.02;0.70;;;17.00;74.70;;;;;;4976297;28;20562;-81
2023/03/24 04:25:36;;;;;;;1.55;0.30;;;17.00;74.80;;;;;;4974156;28;20622;-81
2023/03/24 04:28:20;;;;;;;1.20;0.50;;;17.00;74.70;;;;;;5006841;28;20088;-81
2023/03/24 04:30:55;;;;;;;0.40;0.35;;;17.00;74.70;;;;;;4988253;28;20112;-81
2023/03/24 04:33:24;;;;;;;0.47;0.40;;;17.00;74.80;;;;;;4971992;28;20054;-81
2023/03/24 04:35:54;;;;;;;0.52;0.52;;;17.00;74.70;;;;;;4990620;28;20049;-82
2023/03/24 04:38:24;;;;;;;0.75;0.40;;;16.90;74.60;;;;;;4974600;28;20149;-82
2023/03/24 04:40:50;;;;;;;0.90;0.57;;;16.90;74.60;;;;;;4977379;28;20050;-82
2023/03/24 04:43:17;;;;;;;0.90;0.50;;;16.90;74.60;;;;;;4976333;28;20041;-82
2023/03/24 04:45:48;;;;;;;0.95;0.63;;;16.90;74.60;;;;;;4988122;28;20052;-82
2023/03/24 04:48:14;;;;;;;0.73;0.60;;;16.90;74.60;;;;;;4988749;28;20113;-80
2023/03/24 04:50:42;;;;;;;0.85;0.50;;;16.90;74.60;;;;;;5009909;28;20037;-81
2023/03/24 04:53:08;;;;;;;0.60;0.40;;;16.90;74.50;;;;;;5006913;28;20053;-81
2023/03/24 04:55:50;;;;;;;0.63;0.40;;;16.90;74.50;;;;;;4987616;28;20065;-81
2023/03/24 04:58:16;;;;;;;0.70;0.55;;;16.90;74.50;;;;;;5017589;28;20044;-80
2023/03/24 05:00:42;;;;;;;0.40;0.40;;;16.90;74.60;;;;;;5005730;28;20677;-81
2023/03/24 05:03:12;;;;;;;0.90;0.70;;;16.90;74.50;;;;;;5007970;28;20523;-81
2023/03/24 05:05:41;;;;;;;0.82;0.60;;;16.90;74.40;;;;;;5001780;28;20091;-81
2023/03/24 05:08:07;;;;;;;0.60;0.45;;;16.90;74.40;;;;;;5009182;28;20046;-81
2023/03/24 05:10:33;;;;;;;0.73;0.50;;;16.90;74.40;;;;;;4999217;28;20057;-81
2023/03/24 05:12:59;;;;;;;1.10;0.50;;;16.90;74.30;;;;;;5004684;28;20069;-81
2023/03/24 05:15:25;;;;;;;0.75;0.60;;;16.90;74.30;;;;;;5005089;28;20134;-82
2023/03/24 05:17:51;;;;;;;0.80;0.60;;;16.90;74.20;;;;;;5006907;28;20128;-82
2023/03/24 05:20:17;;;;;;;0.60;0.60;;;16.90;74.30;;;;;;5007506;28;20038;-82
2023/03/24 05:22:43;;;;;;;0.40;0.30;;;16.90;74.20;;;;;;4989637;28;20088;-82
2023/03/24 05:25:08;;;;;;;0.70;0.50;;;16.90;74.20;;;;;;4988048;28;20087;-82
2023/03/24 05:27:34;;;;;;;0.73;0.50;;;16.90;74.20;;;;;;5007336;28;20137;-81
2023/03/24 05:30:00;;;;;;;0.70;0.60;;;16.90;74.20;;;;;;5008538;28;20033;-81
2023/03/24 05:32:26;;;;;;;0.93;0.68;;;16.90;74.20;;;;;;5004915;28;20073;-81
2023/03/24 05:34:51;;;;;;;0.77;0.70;;;16.90;74.20;;;;;;5008845;28;20115;-81
2023/03/24 05:37:17;;;;;;;0.60;0.60;;;16.90;74.10;;;;;;5006848;28;20514;-81
2023/03/24 05:39:43;;;;;;;0.70;0.60;;;16.90;74.90;;;;;;5003981;28;20422;-81
2023/03/24 05:42:09;;;;;;;0.60;0.50;;;16.90;74.00;;;;;;5008356;28;20379;-81
2023/03/24 05:44:34;;;;;;;0.75;0.60;;;16.90;74.00;;;;;;5007112;28;20049;-81
2023/03/24 05:47:00;;;;;;;0.98;0.50;;;16.90;74.00;;;;;;4989602;28;20534;-82
2023/03/24 05:49:26;;;;;;;1.25;0.50;;;16.90;74.00;;;;;;5003493;28;20037;-81
2023/03/24 05:51:51;;;;;;;0.95;0.55;;;16.90;74.00;;;;;;5003825;28;20061;-81
2023/03/24 05:54:17;;;;;;;0.50;0.40;;;16.90;73.90;;;;;;5003388;28;20034;-80
2023/03/24 05:56:42;;;;;;;0.88;0.50;;;16.90;73.90;;;;;;5003732;28;20042;-81
2023/03/24 05:59:08;;;;;;;1.48;0.90;;;16.90;73.90;;;;;;5005439;28;20038;-81
2023/03/24 06:01:33;;;;;;;2.42;0.70;;;16.90;74.00;;;;;;5001196;28;20044;-81
2023/03/24 06:03:59;;;;;;;0.95;0.63;;;16.90;73.80;;;;;;5004805;28;20034;-82
2023/03/24 06:06:27;;;;;;;0.70;0.70;;;16.90;73.80;;;;;;5003401;28;20045;-82
2023/03/24 06:08:57;;;;;;;0.60;0.50;;;16.90;73.80;;;;;;5002135;28;20038;-79
2023/03/24 06:11:22;;;;;;;0.60;0.40;;;16.90;74.20;;;;;;4999365;28;20161;-81
2023/03/24 06:13:48;;;;;;;1.67;0.60;;;16.90;74.40;;;;;;5000530;28;20114;-80
2023/03/24 06:16:14;;;;;;;2.80;0.63;;;16.90;74.10;;;;;;5005255;28;20037;-80
2023/03/24 06:18:41;;;;;;;0.80;0.55;;;16.90;74.20;;;;;;5002937;28;20033;-80
2023/03/24 06:21:07;;;;;;;2.60;0.90;;;16.90;73.80;;;;;;5013627;28;20046;-81
2023/03/24 06:23:33;;;;;;;0.93;0.80;;;17.00;74.00;;;;;;5004769;28;20144;-81
2023/03/24 06:26:00;;;;;;;0.85;0.50;;;16.90;74.10;;;;;;5004838;28;20041;-84
2023/03/24 06:28:29;;;;;;;1.13;0.82;;;16.90;74.20;;;;;;5017054;28;20049;-83
2023/03/24 06:30:55;;;;;;;0.88;0.80;;;16.90;73.80;;;;;;4988759;28;20183;-82
2023/03/24 06:33:24;;;;;;;1.20;0.82;;;16.90;75.20;;;;;;5004723;28;20045;-81
2023/03/24 06:35:53;;;;;;;1.15;0.68;;;17.00;74.60;;;;;;4995960;28;20045;-88
2023/03/24 06:38:18;;;;;;;1.67;0.95;;;17.00;75.40;;;;;;5002548;28;20496;-84
2023/03/24 06:40:44;;;;;;;2.30;0.90;;;17.00;75.10;;;;;;5001262;28;20045;-79
2023/03/24 06:43:09;;;;;;;1.08;0.73;;;17.00;75.90;;;;;;5004400;28;20053;-81
2023/03/24 06:45:38;;;;;;;1.00;0.60;;;17.00;76.20;;;;;;5002391;28;20499;-82
2023/03/24 06:48:03;;;;;;;1.02;0.93;;;17.00;77.00;;;;;;5003128;28;20041;-83
2023/03/24 06:50:32;;;;;;;1.73;1.13;;;17.00;75.20;;;;;;4652090;28;9999976;-81
2023/03/24 06:52:58;;;;;;;1.05;0.80;;;17.10;76.00;;;;;;4999554;28;20064;-82
2023/03/24 06:55:24;;;;;;;2.38;0.85;;;17.00;76.10;;;;;;5002386;28;20181;-81
2023/03/24 06:57:50;;;;;;;0.85;0.57;;;17.00;77.10;;;;;;5001399;28;20041;-82
2023/03/24 07:00:16;;;;;;;0.98;0.60;;;17.00;77.60;;;;;;5016635;28;20038;-80
2023/03/24 07:02:41;;;;;;;3.03;0.82;;;17.00;78.00;;;;;;5001476;28;20038;-82
2023/03/24 07:05:08;;;;;;;1.95;0.75;;;17.00;78.20;;;;;;4984802;28;20552;-80
2023/03/24 07:07:34;;;;;;;0.90;0.60;;;17.00;78.00;;;;;;5002020;28;21528;-81
2023/03/24 07:10:00;;;;;;;0.80;0.60;;;17.00;78.80;;;;;;5002498;28;20064;-80
2023/03/24 07:12:26;;;;;;;0.88;0.70;;;17.00;78.20;;;;;;5004095;28;20045;-80
2023/03/24 07:14:52;;;;;;;0.90;0.80;;;17.00;78.20;;;;;;4988806;28;20069;-80
2023/03/24 07:17:17;;;;;;;1.48;0.60;;;17.00;78.20;;;;;;5005428;28;20046;-80
2023/03/24 07:19:45;;;;;;;0.75;0.40;;;17.00;77.90;;;;;;5008202;28;20033;-81
2023/03/24 07:22:11;;;;;;;1.95;0.60;;;17.00;77.40;;;;;;5000081;28;20511;-79
2023/03/24 07:24:37;;;;;;;1.70;1.08;;;17.10;77.00;;;;;;5003645;28;20057;-80
2023/03/24 07:27:02;;;;;;;1.83;0.75;;;17.00;76.00;;;;;;5003608;28;20034;-80
2023/03/24 07:29:28;;;;;;;1.15;0.70;;;17.10;76.90;;;;;;5003327;28;20045;-80
2023/03/24 07:31:57;;;;;;;2.08;0.73;;;17.10;77.30;;;;;;5006984;28;20038;-80
2023/03/24 07:34:24;;;;;;;1.23;0.88;;;17.10;77.10;;;;;;5016949;28;20548;-80
2023/03/24 07:36:50;;;;;;;2.00;0.73;;;17.00;77.20;;;;;;4998701;28;20038;-80
2023/03/24 07:39:16;;;;;;;2.42;0.90;;;17.00;77.50;;;;;;5002333;28;20514;-80
2023/03/24 07:41:42;;;;;;;1.00;0.80;;;17.00;77.80;;;;;;4986010;28;20030;-80
2023/03/24 07:44:08;;;;;;;0.80;0.80;;;17.00;77.80;;;;;;5005385;28;20074;-81
2023/03/24 07:46:33;;;;;;;0.88;0.65;;;17.00;78.10;;;;;;5006460;28;20034;-80
2023/03/24 07:48:59;;;;;;;2.78;1.20;;;17.00;78.20;;;;;;4989300;28;20613;-82
2023/03/24 07:51:24;;;;;;;1.40;0.75;;;17.00;78.30;;;;;;5011170;28;20065;-85
2023/03/24 07:53:50;;;;;;;1.00;0.40;;;17.00;77.90;;;;;;5010062;28;20041;-85
2023/03/24 07:56:16;;;;;;;1.42;0.80;;;17.10;77.30;;;;;;5009643;28;20046;-82
2023/03/24 07:58:41;;;;;;;1.08;0.82;;;17.10;77.90;;;;;;5008336;28;20511;-80
2023/03/24 08:01:09;;;;;;;1.73;0.90;;;17.10;77.70;;;;;;5004658;28;20041;-77
2023/03/24 08:03:39;;;;;;;0.40;0.40;;;17.10;77.80;;;;;;5005202;28;20500;-79
2023/03/24 08:06:05;;;;;;;1.02;0.77;;;17.10;77.80;;;;;;5007434;28;20041;-78
2023/03/24 08:08:31;;;;;;;0.98;0.45;;;17.10;77.30;;;;;;5013768;28;20038;-79
2023/03/24 08:10:57;;;;;;;1.40;0.68;;;17.10;77.50;;;;;;5005376;28;20057;-79
2023/03/24 08:13:23;;;;;;;0.82;0.68;;;17.20;78.20;;;;;;5005652;28;20034;-78
2023/03/24 08:15:48;;;;;;;0.93;0.60;;;17.10;78.00;;;;;;5025205;28;20072;-79
2023/03/24 08:18:15;;;;;;;1.55;0.85;;;17.10;78.20;;;;;;5007841;28;20054;-78
2023/03/24 08:20:41;;;;;;;1.00;0.60;;;17.20;78.40;;;;;;5008172;28;20573;-78
2023/03/24 08:23:07;;;;;;;1.00;0.70;;;17.20;78.20;;;;;;4989093;28;20050;-79
2023/03/24 08:25:32;;;;;;;1.35;0.73;;;17.20;78.00;;;;;;5007372;28;20501;-78
2023/03/24 08:27:58;;;;;;;2.42;0.80;;;17.20;78.10;;;;;;5013238;28;20049;-78
2023/03/24 08:30:24;;;;;;;1.63;0.80;;;17.20;78.10;;;;;;5007078;28;20100;-78
2023/03/24 08:32:52;;;;;;;1.08;0.80;;;17.20;78.20;;;;;;5006866;28;20046;-78
2023/03/24 08:35:19;;;;;;;0.77;0.77;;;17.20;77.90;;;;;;5007839;28;20580;-78
2023/03/24 08:37:45;;;;;;;0.77;0.60;;;17.20;77.80;;;;;;4991013;28;20046;-79
2023/03/24 08:40:13;;;;;;;1.02;0.50;;;17.20;77.80;;;;;;4987903;28;20116;-78
2023/03/24 08:42:40;;;;;;;2.15;0.90;;;17.20;77.70;;;;;;4987283;28;20041;-80
2023/03/24 08:45:06;;;;;;;1.48;0.65;;;17.30;77.50;;;;;;4990022;28;20136;-79
2023/03/24 08:47:31;;;;;;;0.93;0.65;;;17.20;77.40;;;;;;5008280;28;20065;-79
2023/03/24 08:49:57;;;;;;;2.00;0.80;;;17.30;77.60;;;;;;5006792;28;20080;-79
2023/03/24 08:52:23;;;;;;;1.40;0.50;;;17.20;77.80;;;;;;5008694;28;20065;-79
2023/03/24 08:54:49;;;;;;;0.73;0.60;;;17.20;77.80;;;;;;5007051;28;20155;-79
2023/03/24 08:57:16;;;;;;;2.63;1.25;;;17.20;77.40;;;;;;5022038;28;20579;-79
2023/03/24 08:59:41;;;;;;;0.93;0.73;;;17.30;77.60;;;;;;5006198;28;20046;-79
2023/03/24 09:02:11;;;;;;;1.35;0.50;;;17.30;77.60;;;;;;5008145;28;20040;-79
2023/03/24 09:04:37;;;;;;;1.88;0.57;;;17.30;77.60;;;;;;5007349;28;20117;-79
2023/03/24 09:07:02;;;;;;;1.80;0.50;;;17.30;77.80;;;;;;5008940;28;20179;-78
2023/03/24 09:09:29;;;;;;;0.80;0.60;;;17.30;77.40;;;;;;4989763;28;20038;-79
2023/03/24 09:11:54;;;;;;;1.08;0.70;;;17.40;77.00;;;;;;4989151;28;20050;-82
2023/03/24 09:14:21;;;;;;;3.03;0.60;;;17.30;77.10;;;;;;5003928;28;20049;-79
2023/03/24 09:16:48;;;;;;;1.85;0.73;;;17.40;77.00;;;;;;5005394;28;20407;-82
2023/03/24 09:19:13;;;;;;;1.08;0.77;;;17.40;77.10;;;;;;5006704;28;20041;-83
2023/03/24 09:21:41;;;;;;;0.70;0.47;;;17.40;77.10;;;;;;5005480;28;20041;-81
2023/03/24 09:24:07;;;;;;;0.80;0.50;;;17.40;77.20;;;;;;5007142;28;20507;-81
2023/03/24 09:26:33;;;;;;;0.75;0.50;;;17.40;76.90;;;;;;5005926;28;20046;-83
2023/03/24 09:28:59;;;;;;;0.75;0.55;;;17.40;77.00;;;;;;5008169;28;20038;-82
2023/03/24 09:31:24;;;;;;;0.80;0.80;;;17.40;76.90;;;;;;5006586;28;20527;-83
2023/03/24 09:33:51;;;;;;;1.30;0.70;;;17.40;76.80;;;;;;5006554;28;20559;-81
2023/03/24 09:36:17;;;;;;;1.15;0.60;;;17.40;76.60;;;;;;5008946;28;20096;-80
2023/03/24 09:38:42;;;;;;;1.38;0.82;;;17.50;77.40;;;;;;5005179;28;20422;-78
2023/03/24 09:41:27;;;;;;;1.77;0.75;;;17.50;76.40;;;;;;5002265;28;20038;-78
2023/03/24 09:44:28;;;;;;;1.77;0.77;;;17.50;76.50;;;;;;4990983;28;20057;-79
2023/03/24 09:47:00;;;;;;;2.13;0.60;;;17.50;76.10;;;;;;5002678;28;20042;-81
2023/03/24 09:49:31;;;;;;;1.48;0.70;;;17.50;76.10;;;;;;5006499;28;20042;-79
2023/03/24 09:52:03;;;;;;;0.85;0.80;;;17.50;76.20;;;;;;5006471;28;20131;-79
2023/03/24 09:54:39;;;;;;;1.30;0.73;;;17.50;76.30;;;;;;5005663;28;20037;-80
2023/03/24 09:57:30;;;;;;;1.05;0.93;;;17.50;76.80;;;;;;5004456;28;20053;-80
2023/03/24 09:59:56;;;;;;;1.00;0.70;;;17.50;76.30;;;;;;4999343;28;20077;-80
2023/03/24 10:02:21;;;;;;;1.85;0.70;;;17.50;76.30;;;;;;5006848;28;20069;-82
2023/03/24 10:04:48;;;;;;;2.35;0.73;;;17.50;76.10;;;;;;5005498;28;20049;-80
2023/03/24 10:07:28;;;;;;;0.77;0.55;;;17.60;76.30;;;;;;5005943;28;20041;-81
2023/03/24 10:09:58;;;;;;;0.88;0.80;;;17.60;76.00;;;;;;4999433;28;20050;-83
2023/03/24 10:12:34;;;;;;;0.77;0.60;;;17.60;76.10;;;;;;5004566;28;20054;-81
2023/03/24 10:15:16;;;;;;;1.30;0.60;;;17.50;76.10;;;;;;5004019;28;20066;-84
2023/03/24 10:17:41;;;;;;;0.82;0.70;;;17.50;75.90;;;;;;5006088;28;20153;-81
2023/03/24 10:20:25;;;;;;;0.98;0.60;;;17.60;76.50;;;;;;5005904;28;20124;-81
2023/03/24 10:23:12;;;;;;;1.52;0.70;;;17.50;75.70;;;;;;5004055;28;20050;-82
2023/03/24 10:25:47;;;;;;;0.60;0.60;;;17.50;75.70;;;;;;5007314;28;20725;-81
2023/03/24 10:28:28;;;;;;;0.57;0.47;;;17.60;75.80;;;;;;5005310;28;20092;-81
2023/03/24 10:30:55;;;;;;;0.70;0.30;;;17.60;76.00;;;;;;4988868;28;20189;-81
2023/03/24 10:33:21;;;;;;;0.95;0.57;;;17.60;76.00;;;;;;4989371;28;20049;-80
2023/03/24 10:36:05;;;;;;;1.23;0.65;;;17.60;76.10;;;;;;4998651;28;20407;-79
2023/03/24 10:38:31;;;;;;;1.42;0.65;;;;;;;;;;5001226;28;20066;-80
2023/03/24 10:40:57;;;;;;;0.98;0.65;;;17.60;75.30;;;;;;5007355;28;20073;-80
2023/03/24 10:43:22;;;;;;;2.80;1.00;;;17.60;75.90;;;;;;5008117;28;20663;-80
2023/03/24 10:45:51;;;;;;;1.60;0.63;;;17.60;75.30;;;;;;4985811;28;20616;-79
2023/03/24 10:48:39;;;;;;;1.30;0.80;;;17.60;75.30;;;;;;5004636;28;20057;-79
2023/03/24 10:51:05;;;;;;;1.05;0.68;;;17.60;75.40;;;;;;5006535;28;20046;-79
2023/03/24 10:53:32;;;;;;;1.35;0.55;;;17.60;75.80;;;;;;5007458;28;20046;-79
2023/03/24 10:55:58;;;;;;;1.33;0.90;;;17.60;76.70;;;;;;5009492;28;20046;-83
2023/03/24 10:58:40;;;;;;;2.92;0.85;;;17.60;76.20;;;;;;5005347;28;20049;-79
2023/03/24 11:01:26;;;;;;;1.73;1.02;;;17.60;75.50;;;;;;5001576;28;20042;-79
2023/03/24 11:03:57;;;;;;;1.45;0.60;;;17.70;75.30;;;;;;5007934;28;20642;-81
2023/03/24 11:06:23;;;;;;;1.65;0.90;;;17.60;75.20;;;;;;4985508;28;20424;-79
2023/03/24 11:09:09;;;;;;;0.90;0.85;;;17.70;75.40;;;;;;5001487;28;20038;-76
2023/03/24 11:11:34;;;;;;;4.43;1.00;;;17.80;75.70;;;;;;5004955;28;20422;-79
2023/03/24 11:14:01;;;;;;;1.95;1.13;;;17.70;78.40;;;;;;5003419;28;20506;-78
2023/03/24 11:16:31;;;;;;;0.80;0.77;;;17.80;78.80;;;;;;4985262;28;20046;-82
2023/03/24 11:19:21;;;;;;;1.13;0.88;;;17.80;77.70;;;;;;5003060;28;20206;-82
2023/03/24 11:21:48;;;;;;;1.48;0.80;;;17.80;76.20;;;;;;4309637;28;10000734;-82
2023/03/24 11:24:17;;;;;;;1.45;0.70;;;17.80;75.70;;;;;;4999468;28;20100;-82
2023/03/24 11:26:52;;;;;;;3.45;0.80;;;17.80;75.80;;;;;;4986606;28;20541;-81
2023/03/24 11:29:19;;;;;;;1.73;0.95;;;17.80;75.50;;;;;;5002776;28;20088;-83
2023/03/24 11:31:57;;;;;;;1.58;0.80;;;17.80;75.20;;;;;;5005945;28;20034;-82
2023/03/24 11:34:41;;;;;;;0.98;0.75;;;17.80;75.10;;;;;;5005999;28;20633;-82
2023/03/24 11:37:26;;;;;;;1.63;0.52;;;17.80;75.20;;;;;;5007168;28;20042;-83
2023/03/24 11:40:08;;;;;;;0.40;0.40;;;17.80;75.10;;;;;;4990032;28;20513;-83
2023/03/24 11:42:37;;;;;;;0.82;0.63;;;17.80;74.90;;;;;;5009240;28;20129;-82
2023/03/24 11:45:32;;;;;;;0.85;0.60;;;17.80;74.90;;;;;;4973788;28;20049;-83
2023/03/24 11:47:58;;;;;;;0.98;0.57;;;17.80;75.00;;;;;;5006415;28;20046;-82
2023/03/24 11:50:28;;;;;;;1.10;0.73;;;17.80;75.00;;;;;;5006504;28;20046;-82
2023/03/24 11:52:57;;;;;;;0.90;0.55;;;17.80;74.80;;;;;;5003273;28;20038;-81
2023/03/24 11:55:27;;;;;;;1.67;0.60;;;17.80;74.80;;;;;;5007078;28;20042;-81
2023/03/24 11:58:19;;;;;;;1.40;0.43;;;17.80;74.80;;;;;;5003731;28;20980;-82
2023/03/24 12:00:58;;;;;;;0.60;0.43;;;17.80;75.10;;;;;;5010237;28;20037;-82
2023/03/24 12:03:47;;;;;;;0.57;0.50;;;17.80;75.20;;;;;;5008036;28;20061;-82
2023/03/24 12:06:37;;;;;;;1.38;0.60;;;17.80;74.90;;;;;;5006860;28;20095;-82
2023/03/24 12:09:11;;;;;;;1.20;0.52;;;17.80;75.20;;;;;;5005214;28;20061;-82
2023/03/24 12:11:59;;;;;;;0.88;0.50;;;17.80;75.20;;;;;;5005809;28;20531;-82
2023/03/24 12:15:04;;;;;;;1.33;0.60;;;17.70;75.10;;;;;;5003316;28;20112;-83
2023/03/24 12:17:40;;;;;;;1.67;0.50;;;17.70;75.10;;;;;;5001917;28;20030;-81
2023/03/24 12:20:39;;;;;;;0.98;0.50;;;17.70;75.30;;;;;;5000259;28;20514;-77
2023/03/24 12:23:32;;;;;;;0.95;0.40;;;17.70;75.30;;;;;;5000235;28;20053;-81
2023/03/24 12:26:13;;;;;;;0.70;0.45;;;17.80;75.10;;;;;;4994210;28;20036;-79
2023/03/24 12:28:55;;;;;;;0.85;0.43;;;17.90;75.00;;;;;;5000865;28;20373;-79
2023/03/24 12:31:27;;;;;;;0.75;0.50;;;17.90;75.00;;;;;;5004167;28;20053;-79
2023/03/24 12:34:23;;;;;;;1.30;0.40;;;17.80;74.80;;;;;;4662004;28;10000549;-80
2023/03/24 12:37:06;;;;;;;0.77;0.40;;;17.80;74.80;;;;;;5001001;28;20116;-79
2023/03/24 12:39:36;;;;;;;0.73;0.55;;;17.80;74.80;;;;;;5001015;28;20046;-79
2023/03/24 12:42:15;;;;;;;1.36;0.40;;;17.80;74.90;;;;;;4656196;28;10000969;-79
2023/03/24 12:44:59;;;;;;;2.55;0.40;;;17.70;74.60;;;;;;4986534;28;20034;-79
2023/03/24 12:47:50;;;;;;;0.90;0.43;;;17.70;74.80;;;;;;5005298;28;20038;-80
2023/03/24 12:50:27;;;;;;;1.85;0.40;;;17.70;74.70;;;;;;5005525;28;20034;-80
2023/03/24 12:53:15;;;;;;;1.48;0.50;;;17.70;74.90;;;;;;5005075;28;20038;-80
2023/03/24 12:56:02;;;;;;;0.88;0.47;;;17.70;74.60;;;;;;5005054;28;20534;-79
2023/03/24 12:58:45;;;;;;;0.88;0.50;;;17.70;74.60;;;;;;5018906;28;20039;-80
2023/03/24 13:01:39;;;;;;;0.97;0.53;;;17.80;74.60;;;;;;5002164;28;20029;-80
2023/03/24 13:04:23;;;;;;;0.90;0.50;;;17.70;74.60;;;;;;5003419;28;20033;-86
2023/03/24 13:07:07;;;;;;;1.67;0.60;;;17.80;74.50;;;;;;5012726;28;20278;-84
2023/03/24 13:09:52;;;;;;;0.82;0.50;;;17.80;74.50;;;;;;4998671;28;20034;-82
2023/03/24 13:12:20;;;;;;;0.80;0.45;;;17.80;74.60;;;;;;5016576;28;20034;-84